Time;durP1;ratioP1;P1;durP2;ratioP2;P2;SDS_P1;SDS_P2;PMS_P1;PMS_P2;Temp;Humidity;BMP_temperature;BMP_pressure;BME280_temperature;BME280_humidity;BME280_pressure;Samples;Min_cycle;Max_cycle;Signal;HPM_P1;HPM_P2
2021/12/01 00:01:56;;;;;;;1.40;0.90;;;4.50;99.90;;;;;;5135266;28;20451;-48
2021/12/01 00:04:23;;;;;;;1.97;0.93;;;4.50;99.90;;;;;;5127752;28;20536;-50
2021/12/01 00:06:52;;;;;;;4.83;1.00;;;4.50;99.90;;;;;;5126838;28;20474;-51
2021/12/01 00:09:19;;;;;;;1.30;0.80;;;4.50;99.90;;;;;;5130295;28;20474;-47
2021/12/01 00:11:46;;;;;;;1.50;1.10;;;4.50;99.90;;;;;;5136037;28;20417;-49
2021/12/01 00:14:14;;;;;;;1.33;0.80;;;4.50;99.90;;;;;;5135178;28;20461;-48
2021/12/01 00:16:41;;;;;;;0.97;0.77;;;4.40;99.90;;;;;;5134760;28;20475;-48
2021/12/01 00:19:08;;;;;;;1.40;0.97;;;4.40;99.90;;;;;;5134401;28;20431;-49
2021/12/01 00:21:36;;;;;;;3.23;1.17;;;4.50;99.90;;;;;;5133895;28;21001;-45
2021/12/01 00:24:05;;;;;;;1.30;1.00;;;4.40;99.90;;;;;;5134187;28;20451;-47
2021/12/01 00:26:32;;;;;;;1.10;0.93;;;4.40;99.90;;;;;;5134706;28;20476;-46
2021/12/01 00:28:59;;;;;;;5.23;1.30;;;4.50;99.90;;;;;;5133915;28;20464;-48
2021/12/01 00:31:26;;;;;;;3.90;1.50;;;4.50;99.90;;;;;;5133643;28;20451;-49
2021/12/01 00:33:53;;;;;;;3.03;1.27;;;4.50;99.90;;;;;;5134560;28;20436;-46
2021/12/01 00:36:21;;;;;;;1.93;1.17;;;4.50;99.90;;;;;;5134600;28;20470;-47
2021/12/01 00:38:48;;;;;;;1.80;1.20;;;4.50;99.90;;;;;;5134063;28;20476;-48
2021/12/01 00:41:20;;;;;;;1.57;0.90;;;4.50;99.90;;;;;;5133695;28;20528;-46
2021/12/01 00:43:47;;;;;;;3.20;0.90;;;4.50;99.90;;;;;;5134709;28;20425;-42
2021/12/01 00:46:20;;;;;;;1.93;0.90;;;4.50;99.90;;;;;;5134556;28;20480;-50
2021/12/01 00:48:48;;;;;;;1.97;1.50;;;4.50;99.90;;;;;;5134466;28;20470;-46
2021/12/01 00:51:16;;;;;;;1.00;0.90;;;4.50;99.90;;;;;;5134312;28;20694;-47
2021/12/01 00:53:43;;;;;;;4.60;1.17;;;4.50;99.90;;;;;;5133898;28;20457;-47
2021/12/01 00:56:11;;;;;;;1.77;1.17;;;4.50;99.90;;;;;;5134500;28;20473;-46
2021/12/01 00:58:39;;;;;;;1.30;0.83;;;4.50;99.90;;;;;;5134187;28;20758;-43
2021/12/01 01:01:07;;;;;;;2.47;1.47;;;4.50;99.90;;;;;;5133514;28;20443;-56
2021/12/01 01:03:35;;;;;;;2.73;1.10;;;4.50;99.90;;;;;;5134744;28;20441;-49
2021/12/01 01:06:02;;;;;;;7.37;0.87;;;4.60;99.90;;;;;;5134475;28;20460;-47
2021/12/01 01:08:29;;;;;;;2.97;1.00;;;4.60;99.90;;;;;;5134422;28;20466;-50
2021/12/01 01:16:22;;;;;;;2.33;0.90;;;4.60;99.90;;;;;;5134044;28;20465;-46
2021/12/01 01:16:44;;;;;;;1.33;0.80;;;4.60;99.90;;;;;;5134238;28;20482;-51
2021/12/01 01:19:15;;;;;;;3.47;1.33;;;4.70;99.90;;;;;;5133089;28;20447;-48
2021/12/01 01:21:48;;;;;;;1.33;0.70;;;4.70;99.90;;;;;;5133712;28;20440;-46
2021/12/01 01:24:16;;;;;;;6.77;1.40;;;4.70;99.90;;;;;;5134305;28;20421;-48
2021/12/01 01:26:43;;;;;;;1.80;1.20;;;4.80;99.90;;;;;;5133633;28;20472;-50
2021/12/01 01:29:12;;;;;;;6.40;2.17;;;4.80;99.90;;;;;;5133125;28;20467;-49
2021/12/01 01:31:39;;;;;;;8.43;2.30;;;4.80;99.90;;;;;;5133420;28;20428;-50
2021/12/01 01:34:06;;;;;;;1.60;1.17;;;4.80;99.90;;;;;;5137546;28;20470;-46
2021/12/01 01:36:33;;;;;;;3.90;1.37;;;4.80;99.90;;;;;;5137193;28;20448;-48
2021/12/01 01:39:00;;;;;;;2.90;1.63;;;4.80;99.90;;;;;;5137657;28;20465;-51
2021/12/01 01:41:28;;;;;;;3.63;1.10;;;4.80;99.90;;;;;;5136998;28;20464;-51
2021/12/01 01:43:55;;;;;;;5.13;1.20;;;4.80;99.90;;;;;;5137153;28;20448;-48
2021/12/01 01:46:23;;;;;;;6.37;1.90;;;4.80;99.90;;;;;;5136085;28;20472;-49
2021/12/01 01:48:53;;;;;;;5.33;2.20;;;4.80;99.90;;;;;;5136369;28;20441;-49
2021/12/01 01:51:23;;;;;;;4.57;1.90;;;4.80;99.90;;;;;;5136044;28;20882;-46
2021/12/01 01:53:53;;;;;;;3.70;2.07;;;4.80;99.90;;;;;;5135874;28;20464;-53
2021/12/01 01:56:20;;;;;;;6.00;2.20;;;4.90;99.90;;;;;;5136335;28;20448;-44
2021/12/01 01:58:48;;;;;;;4.40;1.43;;;5.00;99.90;;;;;;5135613;28;20464;-50
2021/12/01 02:01:31;;;;;;;3.83;1.90;;;4.90;99.90;;;;;;5181035;22;20487;-50
2021/12/01 02:04:02;;;;;;;3.00;1.30;;;4.90;99.90;;;;;;5158518;27;20469;-47
2021/12/01 02:06:32;;;;;;;7.87;1.40;;;4.90;99.90;;;;;;5158466;27;20520;-48
2021/12/01 02:09:01;;;;;;;2.60;0.87;;;4.90;99.90;;;;;;5158206;27;20443;-51
2021/12/01 02:11:33;;;;;;;7.07;1.70;;;4.90;99.90;;;;;;5158505;27;20464;-50
2021/12/01 02:26:47;;;;;;;4.80;0.90;;;4.90;99.90;;;;;;5121652;22;20530;-48
2021/12/01 02:29:16;;;;;;;5.83;1.17;;;4.90;99.90;;;;;;5077468;28;20428;-49
2021/12/01 02:31:44;;;;;;;4.50;1.27;;;4.90;99.90;;;;;;5076828;28;20447;-49
2021/12/01 02:34:16;;;;;;;6.10;1.57;;;4.90;99.90;;;;;;5076947;28;20463;-47
2021/12/01 02:36:46;;;;;;;2.80;1.37;;;4.90;99.90;;;;;;5076508;28;20416;-48
2021/12/01 02:39:16;;;;;;;3.50;1.30;;;4.90;99.90;;;;;;5076716;28;20476;-49
2021/12/01 02:41:45;;;;;;;5.53;1.70;;;4.90;99.90;;;;;;5076858;28;20454;-50
2021/12/01 02:44:16;;;;;;;3.83;1.30;;;4.90;99.90;;;;;;5076701;28;20447;-45
2021/12/01 02:46:44;;;;;;;4.47;1.10;;;4.90;99.90;;;;;;5077032;28;20467;-46
2021/12/01 02:49:12;;;;;;;4.50;1.17;;;4.90;99.90;;;;;;5076721;28;20462;-51
2021/12/01 02:51:41;;;;;;;5.80;2.37;;;4.90;99.90;;;;;;5076897;28;20467;-46
2021/12/01 02:54:09;;;;;;;2.50;1.00;;;4.90;99.90;;;;;;5076534;28;20451;-48
2021/12/01 02:56:41;;;;;;;9.60;1.67;;;5.00;99.90;;;;;;5077243;28;20458;-49
2021/12/01 02:59:10;;;;;;;4.30;1.00;;;5.00;99.90;;;;;;5076836;28;20466;-50
2021/12/01 03:01:37;;;;;;;8.90;1.90;;;5.00;99.90;;;;;;5076283;28;20443;-49
2021/12/01 03:04:05;;;;;;;3.17;1.57;;;5.00;99.90;;;;;;5076456;28;20439;-47
2021/12/01 03:06:35;;;;;;;1.63;1.30;;;5.00;99.90;;;;;;5076522;28;20475;-47
2021/12/01 03:09:05;;;;;;;1.30;1.10;;;5.00;99.90;;;;;;5077072;28;20446;-48
2021/12/01 03:11:33;;;;;;;3.23;1.20;;;4.90;99.90;;;;;;5077325;28;20459;-47
2021/12/01 03:14:00;;;;;;;5.83;3.70;;;5.00;99.90;;;;;;5076821;28;20443;-46
2021/12/01 03:16:31;;;;;;;5.67;0.97;;;4.90;99.90;;;;;;5077249;28;20459;-54
2021/12/01 03:18:58;;;;;;;1.50;1.00;;;4.90;99.90;;;;;;5077198;28;20442;-48
2021/12/01 03:21:25;;;;;;;2.03;1.40;;;4.90;99.90;;;;;;5086419;28;20474;-48
2021/12/01 03:23:52;;;;;;;3.33;1.27;;;4.90;99.90;;;;;;5096451;28;20439;-56
2021/12/01 03:26:19;;;;;;;1.73;1.23;;;4.90;99.90;;;;;;5096078;28;20458;-59
2021/12/01 03:28:49;;;;;;;4.93;1.70;;;4.90;99.90;;;;;;5096345;28;20446;-50
2021/12/01 03:31:16;;;;;;;1.10;0.90;;;4.90;99.90;;;;;;5096250;28;20463;-57
2021/12/01 03:33:45;;;;;;;16.13;1.53;;;5.00;99.90;;;;;;5096286;28;20442;-51
2021/12/01 03:36:15;;;;;;;3.67;1.17;;;5.00;99.90;;;;;;5096238;28;20473;-49
2021/12/01 03:38:42;;;;;;;6.20;1.23;;;5.00;99.90;;;;;;5096573;28;20444;-51
2021/12/01 03:41:09;;;;;;;2.10;1.03;;;5.00;99.90;;;;;;5095926;28;20500;-53
2021/12/01 03:43:36;;;;;;;3.30;1.20;;;5.00;99.90;;;;;;5095727;28;20426;-50
2021/12/01 03:46:03;;;;;;;3.47;1.37;;;5.00;99.90;;;;;;5096093;28;20486;-50
2021/12/01 03:48:33;;;;;;;4.93;1.37;;;4.90;99.90;;;;;;5095994;28;20433;-47
2021/12/01 03:51:06;;;;;;;4.20;1.17;;;4.90;99.90;;;;;;5095734;28;20496;-52
2021/12/01 03:53:33;;;;;;;5.63;1.57;;;4.90;99.90;;;;;;5096127;28;20444;-47
2021/12/01 03:56:00;;;;;;;2.30;1.17;;;4.90;99.90;;;;;;5095175;28;20466;-51
2021/12/01 03:58:27;;;;;;;2.07;1.20;;;4.90;99.90;;;;;;5095864;28;20455;-51
2021/12/01 04:00:54;;;;;;;3.73;1.80;;;4.90;99.90;;;;;;5096268;28;20473;-58
2021/12/01 04:03:21;;;;;;;3.13;1.80;;;4.90;99.90;;;;;;5095905;28;20437;-49
2021/12/01 04:05:48;;;;;;;2.37;1.10;;;4.80;99.90;;;;;;5096165;28;20553;-53
2021/12/01 04:08:18;;;;;;;2.13;1.20;;;4.90;99.90;;;;;;5095289;28;20445;-51
2021/12/01 04:10:45;;;;;;;5.23;1.20;;;4.90;99.90;;;;;;5095717;28;20482;-52
2021/12/01 04:13:12;;;;;;;2.50;1.43;;;4.90;99.90;;;;;;5095653;28;20894;-47
2021/12/01 04:15:40;;;;;;;3.17;1.10;;;4.90;99.90;;;;;;5095891;28;20462;-50
2021/12/01 04:18:08;;;;;;;1.40;0.90;;;4.90;99.90;;;;;;5095484;28;20422;-51
2021/12/01 04:20:35;;;;;;;2.70;1.00;;;4.90;99.90;;;;;;5095095;28;20482;-53
2021/12/01 04:23:02;;;;;;;5.73;1.53;;;4.90;99.90;;;;;;5095595;28;20465;-50
2021/12/01 04:25:31;;;;;;;2.80;1.27;;;5.00;99.90;;;;;;5095315;28;20443;-50
2021/12/01 04:27:58;;;;;;;4.37;1.60;;;5.00;99.90;;;;;;5095720;28;20425;-52
2021/12/01 04:30:26;;;;;;;7.60;1.67;;;5.10;99.90;;;;;;5095167;28;20453;-46
2021/12/01 04:32:56;;;;;;;3.93;2.37;;;5.10;99.90;;;;;;5095953;28;20467;-48
2021/12/01 04:35:25;;;;;;;3.30;1.27;;;5.10;99.90;;;;;;5095514;28;20526;-47
2021/12/01 04:37:54;;;;;;;11.23;2.60;;;5.10;99.90;;;;;;5096101;28;20427;-48
2021/12/01 04:40:22;;;;;;;4.07;2.07;;;5.10;99.90;;;;;;5095987;28;20450;-53
2021/12/01 04:42:50;;;;;;;3.07;1.90;;;5.10;99.90;;;;;;5096199;28;20418;-60
2021/12/01 04:45:19;;;;;;;8.33;1.97;;;5.20;99.90;;;;;;5095733;28;20461;-51
2021/12/01 04:47:51;;;;;;;3.47;1.60;;;5.10;99.90;;;;;;5095490;28;20498;-46
2021/12/01 04:50:21;;;;;;;3.30;1.40;;;5.20;99.90;;;;;;5095911;28;20419;-49
2021/12/01 04:52:51;;;;;;;7.27;1.50;;;5.20;99.90;;;;;;5095783;28;20426;-51
2021/12/01 04:55:21;;;;;;;2.00;1.40;;;5.20;99.90;;;;;;5095760;28;20453;-49
2021/12/01 04:57:50;;;;;;;16.20;1.73;;;5.10;99.90;;;;;;5095640;28;20450;-52
2021/12/01 05:00:19;;;;;;;5.80;2.50;;;5.10;99.90;;;;;;5095286;28;20431;-50
2021/12/01 05:02:46;;;;;;;3.73;1.77;;;5.10;99.90;;;;;;5095773;28;20470;-59
2021/12/01 05:05:17;;;;;;;5.87;1.87;;;5.00;99.90;;;;;;5094953;28;20437;-52
2021/12/01 05:07:44;;;;;;;4.20;1.60;;;5.00;99.90;;;;;;5098384;28;20470;-64
2021/12/01 05:10:14;;;;;;;4.97;1.40;;;5.00;99.90;;;;;;5099450;28;20452;-58
2021/12/01 05:12:44;;;;;;;4.30;1.33;;;4.90;99.90;;;;;;5099358;28;20473;-47
2021/12/01 05:15:13;;;;;;;6.87;2.20;;;4.90;99.90;;;;;;5099490;28;20419;-60
2021/12/01 05:17:40;;;;;;;8.60;1.90;;;4.90;99.90;;;;;;5099006;28;20461;-49
2021/12/01 05:20:08;;;;;;;2.43;1.53;;;4.90;99.90;;;;;;5098779;28;20424;-48
2021/12/01 05:22:36;;;;;;;3.50;1.90;;;4.90;99.90;;;;;;5098842;28;20466;-49
2021/12/01 05:25:04;;;;;;;4.63;1.60;;;4.90;99.90;;;;;;5098932;28;20461;-51
2021/12/01 05:27:31;;;;;;;10.17;1.37;;;4.90;99.90;;;;;;5098995;28;20508;-50
2021/12/01 05:29:58;;;;;;;5.57;1.20;;;4.90;99.90;;;;;;5099841;28;20452;-47
2021/12/01 05:32:26;;;;;;;2.83;1.27;;;4.90;99.90;;;;;;5099087;28;20488;-47
2021/12/01 05:34:53;;;;;;;3.40;1.53;;;4.90;99.90;;;;;;5099133;28;20502;-48
2021/12/01 05:37:25;;;;;;;5.40;2.47;;;4.90;99.90;;;;;;5098824;28;20478;-47
2021/12/01 05:39:52;;;;;;;2.23;1.50;;;4.90;99.90;;;;;;5099473;28;20445;-48
2021/12/01 05:42:21;;;;;;;4.40;1.80;;;4.90;99.90;;;;;;5098421;28;20458;-44
2021/12/01 05:44:48;;;;;;;4.03;1.73;;;4.90;99.90;;;;;;5098785;28;20440;-47
2021/12/01 05:47:15;;;;;;;3.10;1.63;;;4.90;99.90;;;;;;5098680;28;20481;-50
2021/12/01 05:49:44;;;;;;;4.50;1.50;;;4.90;99.90;;;;;;5098850;28;20443;-49
2021/12/01 05:52:13;;;;;;;2.10;1.53;;;4.90;99.90;;;;;;5098565;28;20474;-63
2021/12/01 05:54:40;;;;;;;2.40;1.50;;;5.00;99.90;;;;;;5098413;28;20452;-49
2021/12/01 05:57:11;;;;;;;1.50;1.00;;;5.00;99.90;;;;;;5098092;28;20450;-51
2021/12/01 05:59:38;;;;;;;5.47;1.93;;;5.00;99.90;;;;;;5097926;28;20512;-52
2021/12/01 06:02:05;;;;;;;7.50;2.27;;;5.00;99.90;;;;;;5097687;28;20500;-47
2021/12/01 06:04:32;;;;;;;4.30;1.23;;;5.10;99.90;;;;;;5098194;28;20455;-46
2021/12/01 06:07:02;;;;;;;4.90;1.80;;;5.10;99.90;;;;;;5097880;28;20494;-45
2021/12/01 06:09:30;;;;;;;3.53;2.10;;;5.10;99.90;;;;;;5097913;28;20419;-51
2021/12/01 06:12:00;;;;;;;8.13;1.60;;;5.10;99.90;;;;;;5097427;28;20471;-50
2021/12/01 06:14:28;;;;;;;2.43;1.70;;;5.10;99.90;;;;;;5097918;28;20438;-45
2021/12/01 06:16:55;;;;;;;6.23;2.07;;;5.10;99.90;;;;;;5097501;28;20465;-48
2021/12/01 06:19:22;;;;;;;6.20;1.70;;;5.10;99.90;;;;;;5097100;28;20442;-47
2021/12/01 06:21:49;;;;;;;4.13;1.60;;;5.10;99.90;;;;;;5097557;28;20493;-51
2021/12/01 06:24:18;;;;;;;4.67;2.27;;;5.10;99.90;;;;;;5097245;28;20458;-49
2021/12/01 06:26:45;;;;;;;4.73;2.83;;;5.10;99.90;;;;;;5097516;28;20493;-50
2021/12/01 06:29:12;;;;;;;5.90;1.63;;;5.10;99.90;;;;;;5097452;28;20740;-51
2021/12/01 06:31:39;;;;;;;3.03;2.57;;;5.10;99.90;;;;;;5097223;28;20459;-49
2021/12/01 06:34:06;;;;;;;2.87;1.70;;;5.10;99.90;;;;;;5097031;28;20438;-47
2021/12/01 06:36:33;;;;;;;4.77;2.70;;;5.00;99.90;;;;;;5096737;28;20473;-45
2021/12/01 06:39:00;;;;;;;6.37;2.60;;;5.00;99.90;;;;;;5096869;28;20476;-48
2021/12/01 06:41:29;;;;;;;8.97;3.40;;;5.00;99.90;;;;;;5097113;28;20446;-45
2021/12/01 06:43:56;;;;;;;2.20;1.63;;;5.00;99.90;;;;;;5097460;28;20427;-45
2021/12/01 06:46:23;;;;;;;6.70;3.60;;;5.00;99.90;;;;;;5096359;28;20442;-49
2021/12/01 06:48:50;;;;;;;5.53;2.60;;;5.00;99.90;;;;;;5094887;28;20443;-47
2021/12/01 06:51:17;;;;;;;4.47;2.77;;;5.00;99.90;;;;;;5093385;28;20458;-48
2021/12/01 06:53:44;;;;;;;3.57;2.60;;;5.00;99.90;;;;;;5093046;28;20438;-48
2021/12/01 06:56:11;;;;;;;3.90;2.17;;;5.10;99.90;;;;;;5092806;28;20447;-49
2021/12/01 06:58:47;;;;;;;4.00;1.70;;;5.10;99.90;;;;;;5093290;28;20462;-48
2021/12/01 07:01:14;;;;;;;5.77;3.30;;;5.00;99.90;;;;;;5093882;28;20456;-49
2021/12/01 07:03:42;;;;;;;5.33;2.40;;;5.10;99.90;;;;;;5092775;28;20504;-49
2021/12/01 07:06:09;;;;;;;5.20;2.10;;;5.10;99.90;;;;;;5092494;28;20453;-45
2021/12/01 07:08:37;;;;;;;1.93;1.63;;;5.20;99.90;;;;;;5093334;28;20486;-48
2021/12/01 07:11:05;;;;;;;2.80;2.03;;;5.10;99.90;;;;;;5094125;28;20446;-45
2021/12/01 07:13:34;;;;;;;1.77;1.47;;;5.10;99.90;;;;;;5093320;28;20453;-50
2021/12/01 07:16:03;;;;;;;4.23;2.50;;;5.10;99.90;;;;;;5092680;28;20462;-48
2021/12/01 07:18:31;;;;;;;2.30;1.73;;;5.20;99.90;;;;;;5092389;28;20434;-48
2021/12/01 07:20:58;;;;;;;2.27;1.90;;;5.10;99.90;;;;;;5093331;28;20449;-47
2021/12/01 07:23:25;;;;;;;6.63;2.50;;;5.20;99.90;;;;;;5093111;28;20466;-46
2021/12/01 07:25:53;;;;;;;2.50;2.20;;;5.20;99.90;;;;;;5092608;28;20454;-47
2021/12/01 07:28:20;;;;;;;6.33;4.03;;;5.20;99.90;;;;;;5092191;28;20489;-49
2021/12/01 07:30:47;;;;;;;7.67;2.50;;;5.20;99.90;;;;;;5091733;28;20449;-49
2021/12/01 07:33:15;;;;;;;5.33;3.20;;;6.10;99.90;;;;;;5089617;28;20494;-48
2021/12/01 07:35:42;;;;;;;4.93;3.97;;;7.20;99.90;;;;;;5090360;28;20435;-47
2021/12/01 07:38:09;;;;;;;3.30;3.00;;;6.90;99.90;;;;;;5090848;28;20465;-50
2021/12/01 07:40:36;;;;;;;2.63;2.20;;;6.60;99.90;;;;;;5092022;28;20438;-52
2021/12/01 07:43:03;;;;;;;2.87;2.23;;;6.30;99.90;;;;;;5085701;28;20474;-52
2021/12/01 07:45:31;;;;;;;6.90;3.00;;;6.20;99.90;;;;;;5083505;28;20473;-48
2021/12/01 07:47:58;;;;;;;6.03;2.40;;;6.00;99.90;;;;;;5090642;28;20831;-49
2021/12/01 07:50:26;;;;;;;4.27;2.37;;;6.00;99.90;;;;;;5090595;28;20438;-50
2021/12/01 07:52:54;;;;;;;3.13;2.03;;;6.00;99.90;;;;;;5091681;28;20481;-48
2021/12/01 07:55:21;;;;;;;2.90;2.30;;;6.00;99.90;;;;;;5089598;28;20430;-45
2021/12/01 07:57:48;;;;;;;2.80;2.10;;;6.00;99.90;;;;;;5086241;28;20462;-47
2021/12/01 08:00:16;;;;;;;3.93;2.60;;;6.00;99.90;;;;;;5065202;28;20448;-48
2021/12/01 08:02:45;;;;;;;6.80;2.00;;;6.00;99.90;;;;;;5060327;28;20918;-46
2021/12/01 08:05:12;;;;;;;5.47;2.60;;;6.10;99.90;;;;;;5071105;28;20450;-48
2021/12/01 08:07:41;;;;;;;2.60;1.80;;;6.20;99.90;;;;;;5066113;28;20981;-47
2021/12/01 08:10:10;;;;;;;3.40;2.73;;;6.20;99.90;;;;;;5078493;28;20494;-44
2021/12/01 08:37:18;;;;;;;4.53;2.47;;;6.70;99.90;;;;;;5091599;22;20487;-60
2021/12/01 08:39:45;;;;;;;4.20;3.10;;;6.70;99.90;;;;;;5090934;28;20484;-53
2021/12/01 08:42:14;;;;;;;3.27;2.30;;;6.80;99.90;;;;;;5083076;28;20442;-54
2021/12/01 08:44:46;;;;;;;3.10;2.40;;;6.80;99.90;;;;;;5088669;28;20458;-56
2021/12/01 08:47:13;;;;;;;4.23;2.57;;;6.90;99.90;;;;;;5093620;28;20458;-56
2021/12/01 08:49:40;;;;;;;2.70;2.50;;;7.00;99.90;;;;;;5081849;28;20470;-53
2021/12/01 08:52:08;;;;;;;4.90;2.90;;;7.00;99.90;;;;;;5093516;28;20431;-49
2021/12/01 08:54:38;;;;;;;2.00;1.80;;;7.10;99.90;;;;;;5087971;28;20466;-55
2021/12/01 08:57:08;;;;;;;7.13;2.73;;;7.10;99.90;;;;;;5084759;28;20622;-55
2021/12/01 08:59:36;;;;;;;2.43;2.00;;;7.10;99.90;;;;;;5095486;28;20499;-54
2021/12/01 09:02:10;;;;;;;2.70;2.17;;;7.10;99.90;;;;;;5083532;28;20441;-55
2021/12/01 09:04:37;;;;;;;2.40;2.20;;;7.10;99.90;;;;;;5098404;28;20480;-50
2021/12/01 09:07:06;;;;;;;2.50;2.30;;;7.10;99.90;;;;;;5085044;28;20435;-56
2021/12/01 09:09:39;;;;;;;2.53;2.27;;;7.10;99.90;;;;;;5095166;28;20473;-55
2021/12/01 09:12:13;;;;;;;3.70;2.80;;;7.10;99.90;;;;;;5093208;28;20462;-55
2021/12/01 09:14:40;;;;;;;2.97;2.10;;;7.10;99.90;;;;;;5092205;28;20445;-56
2021/12/01 09:17:12;;;;;;;3.23;2.67;;;7.10;99.90;;;;;;5085140;28;20439;-55
2021/12/01 09:19:39;;;;;;;3.00;1.80;;;7.10;99.90;;;;;;5095122;28;20442;-47
2021/12/01 09:22:07;;;;;;;2.00;1.70;;;7.10;99.90;;;;;;5078748;28;20418;-49
2021/12/01 09:24:35;;;;;;;2.23;2.03;;;7.10;99.90;;;;;;5087373;28;20454;-61
2021/12/01 09:27:04;;;;;;;3.27;2.10;;;7.10;99.90;;;;;;5098214;28;20501;-48
2021/12/01 09:29:38;;;;;;;4.77;1.60;;;7.10;99.90;;;;;;5082230;28;20434;-52
2021/12/01 09:32:08;;;;;;;2.80;1.93;;;7.10;99.90;;;;;;5093449;28;20453;-54
2021/12/01 09:34:39;;;;;;;2.97;1.90;;;7.10;99.90;;;;;;5087775;28;20434;-54
2021/12/01 09:37:08;;;;;;;2.47;1.70;;;7.10;99.90;;;;;;5084832;28;20455;-48
2021/12/01 09:39:49;;;;;;;1.87;1.47;;;7.10;99.90;;;;;;5094075;28;20462;-53
2021/12/01 09:42:19;;;;;;;2.20;1.33;;;7.10;99.90;;;;;;5084643;28;20438;-58
2021/12/01 09:44:47;;;;;;;2.70;1.63;;;7.20;99.90;;;;;;5098211;28;20438;-48
2021/12/01 09:47:18;;;;;;;1.83;1.63;;;7.20;99.90;;;;;;5094611;28;20422;-51
2021/12/01 09:50:03;;;;;;;2.63;1.50;;;7.20;99.90;;;;;;5078301;28;20557;-52
2021/12/01 09:52:31;;;;;;;1.93;1.53;;;7.20;99.90;;;;;;5084895;28;20426;-47
2021/12/01 09:54:59;;;;;;;3.53;2.37;;;7.20;99.90;;;;;;5082099;28;20446;-48
2021/12/01 09:57:28;;;;;;;1.73;1.30;;;7.30;99.90;;;;;;5094179;28;20482;-54
2021/12/01 10:00:19;;;;;;;2.10;1.50;;;7.30;99.90;;;;;;5093695;28;20514;-51
2021/12/01 10:02:46;;;;;;;2.53;1.53;;;7.30;99.90;;;;;;5096331;28;20422;-50
2021/12/01 10:05:16;;;;;;;3.77;1.93;;;7.30;99.90;;;;;;5077572;28;20443;-52
2021/12/01 10:07:45;;;;;;;1.63;1.47;;;7.30;99.90;;;;;;5080518;28;20474;-53
2021/12/01 10:10:13;;;;;;;3.27;1.53;;;7.30;99.90;;;;;;5076403;28;20439;-54
2021/12/01 10:12:51;;;;;;;3.47;1.70;;;7.40;99.90;;;;;;5086467;28;20434;-54
2021/12/01 10:15:30;;;;;;;1.97;1.43;;;7.40;99.90;;;;;;5075419;28;20434;-52
2021/12/01 10:18:13;;;;;;;1.97;1.67;;;7.40;99.90;;;;;;5070474;28;20427;-53
2021/12/01 10:20:44;;;;;;;1.70;1.60;;;7.50;99.90;;;;;;5077756;28;20434;-54
2021/12/01 10:23:14;;;;;;;9.07;1.93;;;7.40;99.90;;;;;;5065923;28;20556;-52
2021/12/01 10:25:42;;;;;;;2.40;2.07;;;7.40;99.90;;;;;;5072655;28;20481;-54
2021/12/01 10:28:33;;;;;;;3.57;2.00;;;7.40;99.90;;;;;;5074176;28;20481;-54
2021/12/01 10:31:01;;;;;;;3.00;2.30;;;7.50;99.90;;;;;;5064664;28;20780;-54
2021/12/01 10:33:30;;;;;;;4.40;3.47;;;7.40;99.90;;;;;;5073613;28;20443;-54
2021/12/01 10:36:00;;;;;;;4.87;2.53;;;7.40;99.90;;;;;;5072044;28;20460;-55
2021/12/01 10:38:29;;;;;;;2.60;1.80;;;7.40;99.90;;;;;;5071874;28;20759;-53
2021/12/01 10:41:09;;;;;;;6.70;1.80;;;7.40;99.90;;;;;;5078649;28;20468;-55
2021/12/01 10:43:46;;;;;;;4.10;1.90;;;7.40;99.90;;;;;;5063613;28;20446;-55
2021/12/01 10:46:16;;;;;;;3.53;2.30;;;7.40;99.90;;;;;;5069924;28;20439;-56
2021/12/01 10:49:06;;;;;;;7.00;1.77;;;7.40;99.90;;;;;;5069005;28;20490;-54
2021/12/01 10:51:41;;;;;;;2.90;1.80;;;7.40;99.90;;;;;;5090041;28;20514;-55
2021/12/01 10:54:16;;;;;;;2.33;2.03;;;7.50;99.90;;;;;;5077343;28;20819;-53
2021/12/01 10:56:44;;;;;;;4.30;1.90;;;7.50;99.90;;;;;;5086264;28;20427;-53
2021/12/01 10:59:24;;;;;;;2.70;1.83;;;7.40;99.90;;;;;;5083936;28;20501;-56
2021/12/01 11:01:52;;;;;;;2.27;1.90;;;7.40;99.90;;;;;;5070155;28;20467;-56
2021/12/01 11:04:43;;;;;;;6.77;1.87;;;7.40;99.90;;;;;;5072525;28;20427;-55
2021/12/01 11:07:36;;;;;;;2.50;1.20;;;7.40;99.90;;;;;;5081951;28;20477;-52
2021/12/01 11:10:15;;;;;;;1.97;1.50;;;7.40;99.90;;;;;;5065421;28;20440;-52
2021/12/01 11:12:44;;;;;;;3.90;1.83;;;7.30;99.90;;;;;;5084863;28;20488;-55
2021/12/01 11:17:54;;;;;;;5.17;2.80;;;7.30;99.90;;;;;;5297790;22;20535;-46
2021/12/01 11:20:42;;;;;;;2.23;1.90;;;7.30;99.90;;;;;;5096846;28;20934;-48
2021/12/01 11:23:14;;;;;;;5.90;1.50;;;7.30;99.90;;;;;;5078987;28;20471;-50
2021/12/01 11:25:42;;;;;;;5.07;2.70;;;7.20;99.90;;;;;;5076631;28;20502;-49
2021/12/01 11:28:14;;;;;;;3.70;2.50;;;7.30;99.90;;;;;;5085034;28;20497;-48
2021/12/01 11:30:42;;;;;;;8.70;2.87;;;7.30;99.90;;;;;;5082143;28;20440;-51
2021/12/01 11:33:13;;;;;;;2.53;1.93;;;7.30;99.90;;;;;;5063727;28;20463;-53
2021/12/01 11:35:42;;;;;;;2.43;2.07;;;7.30;99.90;;;;;;5063243;28;20444;-49
2021/12/01 11:38:13;;;;;;;1.97;1.77;;;7.30;99.90;;;;;;5068846;28;20481;-49
2021/12/01 11:40:44;;;;;;;2.10;1.70;;;7.30;99.90;;;;;;5083574;28;20584;-47
2021/12/01 11:43:13;;;;;;;2.43;1.80;;;7.30;99.90;;;;;;5083007;28;20534;-54
2021/12/01 11:45:43;;;;;;;6.00;1.40;;;7.30;99.90;;;;;;5066597;28;20450;-51
2021/12/01 11:48:15;;;;;;;4.03;2.10;;;7.30;99.90;;;;;;5070780;28;20493;-53
2021/12/01 11:50:50;;;;;;;3.03;2.00;;;7.30;99.90;;;;;;5085871;28;20480;-50
2021/12/01 11:53:22;;;;;;;3.70;2.27;;;7.40;99.90;;;;;;5084095;28;20426;-49
2021/12/01 11:55:52;;;;;;;2.83;2.47;;;7.40;99.90;;;;;;5065560;28;20473;-47
2021/12/01 11:58:48;;;;;;;2.33;2.10;;;7.40;99.90;;;;;;5076005;28;20440;-47
2021/12/01 12:01:42;;;;;;;3.30;2.47;;;7.40;99.90;;;;;;5077488;28;20471;-52
2021/12/01 12:04:27;;;;;;;5.47;3.50;;;7.40;99.90;;;;;;5067432;28;20438;-51
2021/12/01 12:07:00;;;;;;;2.03;1.80;;;7.50;99.90;;;;;;5070752;28;20467;-53
2021/12/01 12:09:28;;;;;;;3.83;2.00;;;7.50;99.90;;;;;;5077995;28;20465;-49
2021/12/01 12:11:57;;;;;;;2.80;1.47;;;7.50;99.90;;;;;;5068993;28;20490;-49
2021/12/01 12:14:29;;;;;;;2.50;1.37;;;7.70;99.90;;;;;;5075209;28;20768;-47
2021/12/01 12:17:07;;;;;;;2.90;2.33;;;8.10;99.90;;;;;;5076802;28;20545;-47
2021/12/01 12:20:00;;;;;;;1.80;1.70;;;8.10;99.90;;;;;;5065305;28;20451;-51
2021/12/01 12:22:35;;;;;;;2.37;2.10;;;8.00;99.90;;;;;;5076183;28;20452;-52
2021/12/01 12:25:05;;;;;;;1.63;1.30;;;7.90;99.90;;;;;;5074415;28;20795;-49
2021/12/01 12:27:38;;;;;;;2.40;2.20;;;7.90;99.90;;;;;;5081754;28;20948;-50
2021/12/01 12:30:12;;;;;;;2.20;1.33;;;7.90;99.90;;;;;;5080740;28;20486;-50
2021/12/01 12:32:42;;;;;;;1.80;1.43;;;7.90;99.90;;;;;;5081476;28;20902;-48
2021/12/01 12:35:12;;;;;;;3.73;1.83;;;7.90;99.90;;;;;;5080962;28;21005;-50
2021/12/01 12:37:40;;;;;;;2.20;1.33;;;7.90;99.90;;;;;;5081277;28;20439;-50
2021/12/01 12:40:12;;;;;;;1.90;1.20;;;7.90;99.90;;;;;;5080905;28;20462;-49
2021/12/01 12:43:07;;;;;;;1.20;1.10;;;7.90;99.90;;;;;;5080826;28;20446;-53
2021/12/01 12:45:35;;;;;;;1.60;1.37;;;7.90;99.90;;;;;;5080552;28;20509;-47
2021/12/01 12:48:02;;;;;;;1.10;1.00;;;7.90;99.90;;;;;;5080130;28;20907;-47
2021/12/01 12:50:31;;;;;;;1.30;1.03;;;7.90;99.90;;;;;;5080531;28;20454;-49
2021/12/01 12:53:07;;;;;;;1.20;1.10;;;7.90;99.90;;;;;;5080876;28;20473;-53
2021/12/01 12:55:42;;;;;;;2.23;1.40;;;8.00;99.90;;;;;;5080684;28;20426;-48
2021/12/01 12:58:15;;;;;;;4.23;1.10;;;8.00;99.90;;;;;;5080623;28;20473;-46
2021/12/01 13:00:48;;;;;;;2.80;1.57;;;8.00;99.90;;;;;;5080529;28;20442;-49
2021/12/01 13:03:31;;;;;;;1.43;1.17;;;8.10;99.90;;;;;;5084975;28;20512;-53
2021/12/01 13:06:01;;;;;;;1.97;1.30;;;8.10;99.90;;;;;;5064553;28;20457;-50
2021/12/01 13:08:34;;;;;;;3.23;0.90;;;8.10;99.90;;;;;;5079965;28;20517;-50
2021/12/01 13:11:07;;;;;;;1.60;1.27;;;8.00;99.90;;;;;;5080604;28;20503;-50
2021/12/01 13:13:36;;;;;;;3.83;1.50;;;8.00;99.90;;;;;;5080324;28;20430;-50
2021/12/01 13:16:05;;;;;;;1.67;0.90;;;8.00;99.90;;;;;;5083711;28;20510;-48
2021/12/01 13:18:35;;;;;;;1.40;0.93;;;8.00;99.90;;;;;;5088978;28;20431;-50
2021/12/01 13:21:06;;;;;;;1.40;1.30;;;8.00;99.90;;;;;;5091880;28;20498;-53
2021/12/01 13:23:34;;;;;;;4.17;2.90;;;8.00;99.90;;;;;;5111921;28;20522;-52
2021/12/01 13:26:09;;;;;;;1.77;1.27;;;8.00;99.90;;;;;;5109765;28;20468;-47
2021/12/01 13:28:46;;;;;;;3.13;1.37;;;8.10;99.90;;;;;;5113457;28;20503;-50
2021/12/01 13:31:17;;;;;;;1.10;0.93;;;8.20;99.90;;;;;;5114142;28;20456;-52
2021/12/01 13:34:02;;;;;;;1.07;0.90;;;8.10;99.90;;;;;;5115169;28;20430;-55
2021/12/01 13:36:36;;;;;;;1.00;0.80;;;8.20;99.90;;;;;;5117079;28;20408;-49
2021/12/01 13:39:09;;;;;;;1.53;1.17;;;8.20;99.90;;;;;;5114976;28;20434;-51
2021/12/01 13:41:40;;;;;;;2.40;1.53;;;8.20;99.90;;;;;;5114156;28;20453;-48
2021/12/01 13:44:11;;;;;;;1.50;1.07;;;8.10;99.90;;;;;;5113943;28;20441;-49
2021/12/01 13:46:39;;;;;;;1.73;1.40;;;8.20;99.90;;;;;;5105057;28;20430;-50
2021/12/01 13:49:07;;;;;;;1.10;0.80;;;8.20;99.90;;;;;;5104981;28;20493;-50
2021/12/01 13:51:40;;;;;;;1.10;1.00;;;8.10;99.90;;;;;;5104229;28;20461;-50
2021/12/01 13:54:23;;;;;;;1.43;1.17;;;8.20;99.90;;;;;;5104282;28;20477;-51
2021/12/01 13:56:58;;;;;;;1.83;1.00;;;8.20;99.90;;;;;;5103639;28;20457;-49